Time;durP1;ratioP1;P1;durP2;ratioP2;P2;SDS_P1;SDS_P2;PMS_P1;PMS_P2;Temp;Humidity;BMP_temperature;BMP_pressure;BME280_temperature;BME280_humidity;BME280_pressure;Samples;Min_cycle;Max_cycle;Signal;HPM_P1;HPM_P2
2022/09/03 00:00:12;;;;;;;1999.90;999.90;;;15.50;99.70;;;;;;4986949;28;20524;-75
2022/09/03 00:02:44;;;;;;;1999.90;999.90;;;15.50;99.90;;;;;;4989553;28;20054;-75
2022/09/03 00:05:22;;;;;;;1999.90;999.90;;;15.40;99.80;;;;;;4972699;28;20049;-75
2022/09/03 00:08:10;;;;;;;1999.90;999.90;;;15.30;99.90;;;;;;5055058;28;20399;-75
2022/09/03 00:10:52;;;;;;;1999.90;999.90;;;15.30;99.90;;;;;;5078864;28;20071;-74
2022/09/03 00:13:41;;;;;;;1999.90;999.90;;;15.20;99.90;;;;;;5051843;28;20352;-75
2022/09/03 00:16:11;;;;;;;1999.90;999.90;;;15.20;99.90;;;;;;5061075;28;20593;-75
2022/09/03 00:18:44;;;;;;;1999.90;999.90;;;15.20;99.90;;;;;;5056298;28;20121;-75
2022/09/03 00:21:16;;;;;;;1999.90;999.90;;;15.20;99.90;;;;;;5077857;28;20401;-75
2022/09/03 00:23:44;;;;;;;1999.90;999.90;;;15.20;99.90;;;;;;5062994;28;20036;-75
2022/09/03 00:26:13;;;;;;;1999.90;999.90;;;15.10;99.90;;;;;;5070410;28;20124;-75
2022/09/03 00:28:51;;;;;;;1999.90;999.90;;;15.10;99.90;;;;;;5051019;28;20134;-73
2022/09/03 00:31:36;;;;;;;1999.90;999.90;;;15.10;99.90;;;;;;5065346;28;20062;-75
2022/09/03 00:34:20;;;;;;;1999.90;999.90;;;15.10;99.90;;;;;;5053087;28;20043;-75
2022/09/03 00:36:46;;;;;;;1999.90;999.90;;;15.10;99.90;;;;;;5065639;28;20538;-75
2022/09/03 00:39:18;;;;;;;1999.90;999.90;;;15.10;99.90;;;;;;5052700;28;20032;-75
2022/09/03 00:42:17;;;;;;;1999.90;999.90;;;15.10;99.90;;;;;;5064096;28;20041;-75
2022/09/03 00:44:55;;;;;;;1999.90;999.90;;;15.00;99.90;;;;;;5060658;28;20127;-75
2022/09/03 00:47:37;;;;;;;1999.90;999.90;;;15.00;99.90;;;;;;5069677;28;20081;-73
2022/09/03 00:50:30;;;;;;;1999.90;999.90;;;15.00;99.90;;;;;;5047232;28;20042;-73
2022/09/03 00:53:28;;;;;;;1999.90;999.90;;;15.00;99.90;;;;;;5102910;28;20052;-73
2022/09/03 00:55:57;;;;;;;1999.90;999.90;;;14.90;99.90;;;;;;5050261;28;20078;-73
2022/09/03 00:58:32;;;;;;;1999.90;999.90;;;14.90;99.90;;;;;;5053966;28;20036;-73
2022/09/03 01:00:59;;;;;;;1999.90;999.90;;;14.90;99.90;;;;;;5054454;28;20388;-73
2022/09/03 01:03:54;;;;;;;1999.90;999.90;;;14.80;99.90;;;;;;5052413;28;20039;-74
2022/09/03 01:07:06;;;;;;;1999.90;999.90;;;14.80;99.90;;;;;;5069351;28;20519;-73
2022/09/03 01:09:55;;;;;;;1999.90;999.90;;;14.80;99.90;;;;;;5038921;28;20503;-73
2022/09/03 01:12:47;;;;;;;1999.90;999.90;;;14.70;99.90;;;;;;5065865;28;20481;-73
2022/09/03 01:15:56;;;;;;;1999.90;999.90;;;14.60;99.90;;;;;;5051121;28;20052;-73
2022/09/03 01:18:47;;;;;;;1999.90;999.90;;;14.60;99.70;;;;;;5051521;28;20404;-74
2022/09/03 01:21:45;;;;;;;1999.90;999.90;;;14.60;99.90;;;;;;5064718;28;20396;-73
2022/09/03 01:24:16;;;;;;;1999.90;999.90;;;14.60;99.90;;;;;;5039261;28;20404;-73
2022/09/03 01:27:05;;;;;;;1999.90;999.90;;;14.50;99.90;;;;;;5068256;28;20059;-73
2022/09/03 01:29:57;;;;;;;1999.90;999.90;;;14.50;99.90;;;;;;5073143;28;20047;-73
2022/09/03 01:32:49;;;;;;;1999.90;999.90;;;14.50;99.90;;;;;;5059870;28;20056;-73
2022/09/03 01:35:18;;;;;;;1999.90;999.90;;;14.50;99.90;;;;;;5068795;28;20151;-74
2022/09/03 01:37:50;;;;;;;1999.90;999.90;;;14.40;99.90;;;;;;5055026;28;20083;-73
2022/09/03 01:40:29;;;;;;;1999.90;999.90;;;14.40;99.90;;;;;;5072829;28;20036;-73
2022/09/03 01:43:06;;;;;;;1999.90;999.90;;;14.40;99.90;;;;;;5063652;28;20035;-72
2022/09/03 01:46:14;;;;;;;1999.90;999.90;;;14.40;99.90;;;;;;5073229;28;20111;-73
2022/09/03 01:49:06;;;;;;;1999.90;999.90;;;14.30;99.90;;;;;;5010589;28;20132;-73
2022/09/03 01:51:31;;;;;;;1999.90;999.90;;;14.30;99.90;;;;;;4988398;28;20132;-72
2022/09/03 01:54:49;;;;;;;1999.90;999.90;;;14.30;99.90;;;;;;4991360;28;20128;-73
2022/09/03 01:57:48;;;;;;;1999.90;999.90;;;14.30;99.90;;;;;;4949834;28;20124;-75
2022/09/03 02:00:21;;;;;;;1999.90;999.90;;;14.30;99.90;;;;;;4935766;28;20125;-72
2022/09/03 02:02:49;;;;;;;;;;;14.20;99.90;;;;;;4937628;28;20133;-73
2022/09/03 02:05:24;;;;;;;1999.90;999.90;;;14.20;99.90;;;;;;4968778;28;20412;-73
2022/09/03 02:07:52;;;;;;;1999.90;999.90;;;14.20;99.90;;;;;;4951811;28;20051;-73
2022/09/03 02:10:50;;;;;;;1999.90;999.90;;;14.20;99.90;;;;;;4935488;28;20109;-73
2022/09/03 02:13:44;;;;;;;1999.90;999.90;;;14.20;99.90;;;;;;4947247;28;20131;-74
2022/09/03 02:16:21;;;;;;;1999.90;999.90;;;14.20;99.90;;;;;;4968073;28;20352;-73
2022/09/03 02:18:56;;;;;;;1999.90;999.90;;;14.10;99.90;;;;;;4952166;28;20053;-73
2022/09/03 02:21:24;;;;;;;1999.90;999.90;;;14.10;99.90;;;;;;4952159;28;20058;-73
2022/09/03 02:23:50;;;;;;;1999.90;999.90;;;14.10;99.90;;;;;;4974172;28;20112;-73
2022/09/03 02:26:21;;;;;;;1999.90;999.90;;;14.10;99.90;;;;;;4973796;28;20089;-73
2022/09/03 02:28:47;;;;;;;1999.90;999.90;;;14.00;99.90;;;;;;4981536;28;20037;-74
2022/09/03 02:31:13;;;;;;;1999.90;999.90;;;14.00;99.90;;;;;;4991172;28;20062;-73
2022/09/03 02:33:41;;;;;;;1999.90;999.90;;;14.00;99.90;;;;;;5005669;28;20520;-73
2022/09/03 02:36:10;;;;;;;1999.90;999.90;;;13.90;99.90;;;;;;5043842;28;20132;-73
2022/09/03 02:38:35;;;;;;;1999.90;999.90;;;13.90;99.90;;;;;;5046903;28;20098;-73
2022/09/03 02:41:01;;;;;;;1999.90;999.90;;;13.80;99.90;;;;;;5017267;28;20037;-73
2022/09/03 02:43:30;;;;;;;1999.90;999.90;;;13.80;99.90;;;;;;5032728;28;20116;-73
2022/09/03 02:46:00;;;;;;;1999.90;999.90;;;13.80;99.90;;;;;;5023700;28;20043;-73
2022/09/03 02:48:26;;;;;;;1999.90;999.90;;;13.80;99.90;;;;;;5046743;28;20044;-73
2022/09/03 02:50:53;;;;;;;1999.90;999.90;;;13.70;99.90;;;;;;5041539;28;20041;-73
2022/09/03 02:53:18;;;;;;;1999.90;999.90;;;13.70;99.90;;;;;;5051241;28;20044;-73
2022/09/03 02:55:44;;;;;;;1999.90;999.90;;;13.70;99.90;;;;;;5030366;28;20164;-73
2022/09/03 02:58:10;;;;;;;1999.90;999.90;;;13.80;99.90;;;;;;5028845;28;20087;-73
2022/09/03 03:00:36;;;;;;;1999.90;999.90;;;13.80;99.90;;;;;;5030931;28;20037;-73
2022/09/03 03:03:03;;;;;;;1999.90;999.90;;;13.70;99.90;;;;;;5027529;28;20367;-73
2022/09/03 03:05:43;;;;;;;1999.90;999.90;;;13.70;99.90;;;;;;5037039;28;20033;-73
2022/09/03 03:08:11;;;;;;;1999.90;999.90;;;13.70;99.90;;;;;;5031194;28;20146;-73
2022/09/03 03:10:37;;;;;;;1999.90;999.90;;;13.70;99.90;;;;;;5042192;28;20047;-73
2022/09/03 03:13:03;;;;;;;1999.90;999.90;;;13.70;99.90;;;;;;5029926;28;20520;-73
2022/09/03 03:15:28;;;;;;;1999.90;999.90;;;13.70;99.90;;;;;;5030967;28;20044;-73
2022/09/03 03:17:57;;;;;;;1999.90;999.90;;;13.70;99.90;;;;;;5038969;28;20048;-73
2022/09/03 03:20:23;;;;;;;1999.90;999.90;;;13.70;99.90;;;;;;5046174;28;20071;-73
2022/09/03 03:22:49;;;;;;;1999.90;999.90;;;13.80;99.90;;;;;;5049418;28;20535;-73
2022/09/03 03:25:14;;;;;;;1999.90;999.90;;;13.80;99.90;;;;;;5034226;28;20146;-74
2022/09/03 03:27:41;;;;;;;1999.90;999.90;;;13.90;99.90;;;;;;5051068;28;20508;-74
2022/09/03 03:30:09;;;;;;;1999.90;999.90;;;13.90;99.90;;;;;;5032620;28;20182;-73
2022/09/03 03:32:35;;;;;;;1999.90;999.90;;;14.00;99.90;;;;;;5065075;28;20081;-74
2022/09/03 03:35:01;;;;;;;1999.90;999.90;;;14.00;99.90;;;;;;5068535;28;20158;-73
2022/09/03 03:37:26;;;;;;;1999.90;999.90;;;14.10;99.90;;;;;;5054521;28;20500;-74
2022/09/03 03:39:52;;;;;;;1999.90;999.90;;;14.20;99.90;;;;;;5068558;28;20036;-74
2022/09/03 03:42:18;;;;;;;1999.90;999.90;;;14.20;99.90;;;;;;5054389;28;20123;-74
2022/09/03 03:44:43;;;;;;;1999.90;999.90;;;14.30;99.90;;;;;;5088263;28;20119;-74
2022/09/03 03:47:09;;;;;;;1999.90;999.90;;;14.30;99.90;;;;;;5084405;28;20624;-74
2022/09/03 03:49:35;;;;;;;1999.90;999.90;;;14.40;99.90;;;;;;5070541;28;20044;-73
2022/09/03 03:52:03;;;;;;;1999.90;999.90;;;14.40;99.90;;;;;;5054455;28;20060;-73
2022/09/03 03:54:29;;;;;;;1999.90;999.90;;;14.50;99.90;;;;;;5070137;28;20051;-73
2022/09/03 03:56:55;;;;;;;1999.90;999.90;;;14.50;99.90;;;;;;5061580;28;20418;-74
2022/09/03 03:59:21;;;;;;;1999.90;999.90;;;14.50;99.90;;;;;;5069974;28;20040;-73
2022/09/03 04:01:49;;;;;;;1999.90;999.90;;;14.60;99.90;;;;;;5051759;28;20043;-74
2022/09/03 04:04:15;;;;;;;1999.90;999.90;;;14.60;99.90;;;;;;5042499;28;20123;-74
2022/09/03 04:06:41;;;;;;;1999.90;999.90;;;14.60;99.90;;;;;;5075757;28;20140;-73
2022/09/03 04:09:07;;;;;;;1999.90;999.90;;;14.70;99.90;;;;;;5070187;28;20526;-73
2022/09/03 04:11:33;;;;;;;1999.90;999.90;;;14.70;99.90;;;;;;5063531;28;20455;-73
2022/09/03 04:13:58;;;;;;;1999.90;999.90;;;14.70;99.90;;;;;;5069176;28;20124;-74
2022/09/03 04:16:27;;;;;;;1999.90;999.90;;;14.80;99.90;;;;;;5069637;28;20487;-73
2022/09/03 04:18:55;;;;;;;1999.90;999.90;;;14.80;99.90;;;;;;5069589;28;20079;-74
2022/09/03 04:21:29;;;;;;;1999.90;999.90;;;14.80;99.90;;;;;;5074706;28;20044;-74
2022/09/03 04:23:57;;;;;;;1999.90;999.90;;;14.80;99.90;;;;;;5066120;28;20109;-74
2022/09/03 04:26:30;;;;;;;1999.90;999.90;;;14.90;99.90;;;;;;5040759;28;20146;-74
2022/09/03 04:29:00;;;;;;;1999.90;999.90;;;14.90;99.90;;;;;;5046342;28;20036;-73
2022/09/03 04:31:26;;;;;;;1999.90;999.90;;;14.90;99.90;;;;;;5053537;28;20062;-73
2022/09/03 04:33:51;;;;;;;1999.90;999.90;;;14.90;99.90;;;;;;5067598;28;20051;-74
2022/09/03 04:36:19;;;;;;;1999.90;999.90;;;14.90;99.90;;;;;;5042109;28;20131;-74
2022/09/03 04:38:46;;;;;;;1999.90;999.90;;;14.90;99.90;;;;;;5069009;28;20040;-73
2022/09/03 04:41:15;;;;;;;1999.90;999.90;;;14.90;99.90;;;;;;5053309;28;20044;-73
2022/09/03 04:43:42;;;;;;;1999.90;999.90;;;14.90;99.90;;;;;;5070234;28;20040;-73
2022/09/03 04:46:09;;;;;;;1999.90;999.90;;;14.90;99.90;;;;;;5072397;28;20044;-73
2022/09/03 04:48:36;;;;;;;1999.90;999.90;;;14.80;99.90;;;;;;5068044;28;20036;-74
2022/09/03 04:51:23;;;;;;;1999.90;999.90;;;14.80;99.90;;;;;;5073543;28;20054;-73
2022/09/03 04:53:58;;;;;;;1999.90;999.90;;;14.70;99.90;;;;;;5071117;28;20036;-74
2022/09/03 04:56:30;;;;;;;1999.90;999.90;;;14.60;99.90;;;;;;5073901;28;20048;-73
2022/09/03 04:58:59;;;;;;;1999.90;999.90;;;14.60;99.90;;;;;;5058237;28;20067;-73
2022/09/03 05:01:30;;;;;;;1999.90;999.90;;;14.60;99.90;;;;;;5072797;28;20458;-74
2022/09/03 05:03:56;;;;;;;1999.90;999.90;;;14.50;99.90;;;;;;5057173;28;20061;-73
2022/09/03 05:06:24;;;;;;;1999.90;999.90;;;14.50;99.90;;;;;;5055382;28;20693;-74
2022/09/03 05:08:51;;;;;;;1999.90;999.90;;;14.40;99.90;;;;;;5055304;28;20040;-74
2022/09/03 05:11:18;;;;;;;1999.90;999.90;;;14.40;99.90;;;;;;5063561;28;20071;-73
2022/09/03 05:13:47;;;;;;;1999.90;999.90;;;14.40;99.90;;;;;;5054429;28;20504;-74
2022/09/03 05:16:14;;;;;;;1999.90;999.90;;;14.40;99.90;;;;;;5073483;28;20097;-74
2022/09/03 05:18:41;;;;;;;1999.90;999.90;;;14.40;99.90;;;;;;5054493;28;20040;-74
2022/09/03 05:21:12;;;;;;;1999.90;999.90;;;14.40;99.90;;;;;;5066457;28;20071;-74
2022/09/03 05:23:39;;;;;;;1999.90;999.90;;;14.40;99.90;;;;;;5053235;28;20123;-73
2022/09/03 05:26:11;;;;;;;1999.90;999.90;;;14.40;99.90;;;;;;5058849;28;20040;-73
2022/09/03 05:28:39;;;;;;;1999.90;999.90;;;14.40;99.90;;;;;;5070155;28;20139;-74
2022/09/03 05:31:09;;;;;;;1999.90;999.90;;;14.40;99.90;;;;;;5061253;28;20047;-73
2022/09/03 05:33:36;;;;;;;1999.90;999.90;;;14.40;99.90;;;;;;5056926;28;20060;-73
2022/09/03 05:36:11;;;;;;;1999.90;999.90;;;14.40;99.90;;;;;;5047350;28;20098;-74
2022/09/03 05:38:36;;;;;;;1999.90;999.90;;;14.50;99.90;;;;;;5069503;28;20139;-74
2022/09/03 05:41:07;;;;;;;1999.90;999.90;;;14.60;99.90;;;;;;5056498;28;20138;-74
2022/09/03 05:43:33;;;;;;;1999.90;999.90;;;14.60;99.90;;;;;;5056208;28;20036;-74
2022/09/03 05:46:01;;;;;;;1999.90;999.90;;;14.60;99.90;;;;;;5056604;28;20044;-74
2022/09/03 05:48:31;;;;;;;1999.90;999.90;;;14.70;99.90;;;;;;5055794;28;20042;-74
2022/09/03 05:50:59;;;;;;;1999.90;999.90;;;14.70;99.90;;;;;;5048813;28;20039;-74
2022/09/03 05:53:26;;;;;;;1999.90;999.90;;;14.70;99.90;;;;;;5053822;28;20384;-74
2022/09/03 05:56:00;;;;;;;1999.90;999.90;;;14.80;99.90;;;;;;5055565;28;20036;-73
2022/09/03 05:58:38;;;;;;;1999.90;999.90;;;14.80;99.90;;;;;;5071489;28;20044;-74
2022/09/03 06:01:33;;;;;;;1999.90;999.90;;;14.80;99.90;;;;;;5106495;28;20071;-74
2022/09/03 06:04:02;;;;;;;1999.90;999.90;;;14.80;99.90;;;;;;5057161;28;20425;-74
2022/09/03 06:06:30;;;;;;;1999.90;999.90;;;14.80;99.90;;;;;;5073749;28;20399;-73
2022/09/03 06:09:17;;;;;;;1999.90;999.90;;;14.90;99.90;;;;;;5052933;28;20047;-74
2022/09/03 06:11:44;;;;;;;1999.90;999.90;;;14.90;99.90;;;;;;5049564;28;20081;-74
2022/09/03 06:14:12;;;;;;;1999.90;999.90;;;14.90;99.90;;;;;;5072645;28;20048;-74
2022/09/03 06:16:40;;;;;;;1999.90;999.90;;;14.90;99.90;;;;;;5067534;28;20044;-74
2022/09/03 06:19:08;;;;;;;1999.90;999.90;;;14.90;99.90;;;;;;5052492;28;20045;-74
2022/09/03 06:21:35;;;;;;;1999.90;999.90;;;14.90;99.90;;;;;;5062919;28;20067;-74
2022/09/03 06:24:02;;;;;;;1999.90;999.90;;;15.00;99.90;;;;;;5068942;28;20043;-74
2022/09/03 06:26:28;;;;;;;1999.90;999.90;;;15.00;99.90;;;;;;5071255;28;20043;-74
2022/09/03 06:28:55;;;;;;;1999.90;999.90;;;15.00;99.90;;;;;;5054558;28;20135;-74
2022/09/03 06:31:22;;;;;;;1999.90;999.90;;;15.10;99.90;;;;;;5066953;28;20510;-74
2022/09/03 06:33:48;;;;;;;1999.90;999.90;;;15.10;99.90;;;;;;5071399;28;20058;-74
2022/09/03 06:36:18;;;;;;;1999.90;999.90;;;15.10;99.90;;;;;;5056749;28;20788;-74
2022/09/03 06:38:45;;;;;;;1999.90;999.90;;;15.20;99.90;;;;;;5068822;28;20137;-74
2022/09/03 06:41:25;;;;;;;1999.90;999.90;;;15.20;99.90;;;;;;5065891;28;20071;-74
2022/09/03 06:44:01;;;;;;;1999.90;999.90;;;15.30;99.90;;;;;;5068928;28;20040;-74
2022/09/03 06:46:28;;;;;;;1999.90;999.90;;;15.30;99.90;;;;;;5072285;28;20503;-74
2022/09/03 06:48:54;;;;;;;1999.90;999.90;;;15.30;99.90;;;;;;5068543;28;20054;-74
2022/09/03 06:51:22;;;;;;;1999.90;999.90;;;15.40;99.90;;;;;;5086748;28;20499;-74
2022/09/03 06:53:51;;;;;;;1999.90;999.90;;;15.40;99.90;;;;;;5043937;28;20400;-74
2022/09/03 06:56:24;;;;;;;1999.90;999.90;;;15.40;99.90;;;;;;5060086;28;20050;-74
2022/09/03 06:58:50;;;;;;;1999.90;999.90;;;15.50;99.90;;;;;;5075902;28;20434;-73
2022/09/03 07:01:19;;;;;;;1999.90;999.90;;;15.60;99.90;;;;;;5059311;28;20403;-74
2022/09/03 07:03:47;;;;;;;1999.90;999.90;;;15.60;99.90;;;;;;5054595;28;20043;-74
2022/09/03 07:06:15;;;;;;;1999.90;999.90;;;15.80;99.90;;;;;;5054102;28;20419;-74
2022/09/03 07:08:41;;;;;;;1999.90;999.90;;;15.90;99.90;;;;;;5070409;28;20047;-74
2022/09/03 07:11:10;;;;;;;1999.90;999.90;;;16.00;99.90;;;;;;5062768;28;20040;-74
2022/09/03 07:13:41;;;;;;;1999.90;999.90;;;16.10;99.90;;;;;;5073665;28;20106;-74
2022/09/03 07:16:22;;;;;;;1999.90;999.90;;;16.20;99.90;;;;;;5083341;28;20040;-75
2022/09/03 07:18:48;;;;;;;1999.90;999.90;;;16.30;99.90;;;;;;5079496;28;20046;-74
2022/09/03 07:21:17;;;;;;;1999.90;999.90;;;16.30;99.90;;;;;;5059516;28;20090;-74
2022/09/03 07:23:43;;;;;;;1999.90;999.90;;;16.40;99.90;;;;;;5070513;28;20470;-74
2022/09/03 07:26:12;;;;;;;1999.90;999.90;;;16.50;99.90;;;;;;5053504;28;20376;-74
2022/09/03 07:28:40;;;;;;;1999.90;999.90;;;16.70;99.80;;;;;;5091771;28;20045;-74
2022/09/03 07:31:11;;;;;;;1999.90;999.90;;;16.70;99.90;;;;;;5053211;28;20419;-74
2022/09/03 07:33:38;;;;;;;1999.90;999.90;;;16.80;99.90;;;;;;5047445;28;20047;-74
2022/09/03 07:36:11;;;;;;;1999.90;999.90;;;16.90;99.80;;;;;;5083018;28;20551;-75
2022/09/03 07:38:36;;;;;;;1999.90;999.90;;;16.90;99.60;;;;;;5054057;28;20036;-75
2022/09/03 07:41:08;;;;;;;1999.90;999.90;;;17.00;99.40;;;;;;5052192;28;20051;-75
2022/09/03 07:43:48;;;;;;;1999.90;999.90;;;17.10;99.10;;;;;;5052683;28;20044;-74
2022/09/03 07:46:22;;;;;;;1999.90;999.90;;;17.20;98.90;;;;;;5071005;28;20056;-74
2022/09/03 07:48:49;;;;;;;1999.90;999.90;;;17.20;98.90;;;;;;5054037;28;20070;-74
2022/09/03 07:51:16;;;;;;;1999.90;999.90;;;17.30;98.60;;;;;;5066944;28;20043;-74
2022/09/03 07:53:44;;;;;;;1999.90;999.90;;;17.40;99.00;;;;;;5064789;28;20417;-74
2022/09/03 07:56:10;;;;;;;1999.90;999.90;;;17.50;98.10;;;;;;5053648;28;20387;-75
2022/09/03 07:58:37;;;;;;;1999.90;999.90;;;17.60;97.80;;;;;;5050895;28;20047;-74
2022/09/03 08:01:14;;;;;;;1999.90;999.90;;;17.70;97.30;;;;;;5054079;28;20032;-75
2022/09/03 08:03:45;;;;;;;1999.90;999.90;;;17.70;97.40;;;;;;5050850;28;20050;-75
2022/09/03 08:06:12;;;;;;;1999.90;999.90;;;17.80;97.10;;;;;;5059750;28;20083;-74
2022/09/03 08:08:39;;;;;;;1999.90;999.90;;;17.80;97.30;;;;;;5076451;28;20044;-74
2022/09/03 08:11:14;;;;;;;1999.90;999.90;;;17.90;97.40;;;;;;5086693;28;20114;-74
2022/09/03 08:13:43;;;;;;;1999.90;999.90;;;18.00;97.60;;;;;;5063915;28;20457;-74
2022/09/03 08:16:14;;;;;;;1999.90;999.90;;;18.10;97.70;;;;;;5053961;28;20051;-74
2022/09/03 08:18:40;;;;;;;1999.90;999.90;;;18.10;96.90;;;;;;5070338;28;20048;-75
2022/09/03 08:21:09;;;;;;;1999.90;999.90;;;18.20;97.00;;;;;;5071472;28;20131;-74
2022/09/03 08:23:39;;;;;;;1999.90;999.90;;;18.30;96.80;;;;;;5068676;28;20039;-75
2022/09/03 08:26:06;;;;;;;1999.90;999.90;;;18.50;96.90;;;;;;5072151;28;20499;-75
2022/09/03 08:28:33;;;;;;;1999.90;999.90;;;18.60;96.70;;;;;;5056525;28;20063;-74
2022/09/03 08:31:05;;;;;;;1999.90;999.90;;;18.60;96.80;;;;;;5056317;28;20152;-74
2022/09/03 08:33:37;;;;;;;1999.90;999.90;;;18.70;96.30;;;;;;5049753;28;20044;-75
2022/09/03 08:36:07;;;;;;;1999.90;999.90;;;18.80;96.50;;;;;;5085259;28;20040;-74
2022/09/03 08:38:34;;;;;;;1999.90;999.90;;;18.90;96.30;;;;;;5057572;28;20364;-75
2022/09/03 08:41:05;;;;;;;1999.90;999.90;;;19.00;96.00;;;;;;5052645;28;20043;-75
2022/09/03 08:43:38;;;;;;;1999.90;999.90;;;19.10;95.70;;;;;;5073287;28;20620;-75
2022/09/03 08:46:05;;;;;;;1999.90;999.90;;;19.30;95.60;;;;;;5073846;28;20701;-74
2022/09/03 08:48:32;;;;;;;1999.90;999.90;;;19.40;95.20;;;;;;5053710;28;20529;-74
2022/09/03 08:51:02;;;;;;;1999.90;999.90;;;19.80;95.10;;;;;;5057187;28;20097;-75
2022/09/03 08:53:42;;;;;;;1999.90;999.90;;;20.50;93.60;;;;;;5057014;28;20039;-75
2022/09/03 08:56:12;;;;;;;1999.90;999.90;;;20.80;93.80;;;;;;5055654;28;20527;-74
2022/09/03 08:58:38;;;;;;;1999.90;999.90;;;21.30;93.10;;;;;;5051110;28;20043;-75
2022/09/03 09:01:19;;;;;;;1999.90;999.90;;;22.10;93.10;;;;;;5074086;28;20044;-76
2022/09/03 09:04:12;;;;;;;1999.90;999.90;;;23.00;91.80;;;;;;5063604;28;20442;-75
2022/09/03 09:07:15;;;;;;;1999.90;999.90;;;23.80;89.80;;;;;;5073813;28;20073;-75
2022/09/03 09:10:04;;;;;;;1999.90;999.90;;;24.30;86.50;;;;;;5063646;28;20136;-75
2022/09/03 09:12:45;;;;;;;1999.90;999.90;;;24.50;77.40;;;;;;5070774;28;20087;-75
2022/09/03 09:15:23;;;;;;;1999.90;999.90;;;24.70;79.60;;;;;;5057191;28;20122;-75
2022/09/03 09:18:13;;;;;;;1999.90;999.90;;;25.20;77.90;;;;;;5068327;28;20510;-75
2022/09/03 09:20:56;;;;;;;1999.90;999.90;;;25.40;75.60;;;;;;5070886;28;20503;-74
2022/09/03 09:23:39;;;;;;;1999.90;999.90;;;25.60;77.00;;;;;;5073626;28;20045;-75
2022/09/03 09:26:10;;;;;;;1999.90;999.90;;;25.80;72.10;;;;;;5055288;28;20044;-75
2022/09/03 09:28:37;;;;;;;1999.90;999.90;;;25.80;72.30;;;;;;5073263;28;20044;-75
2022/09/03 09:31:11;;;;;;;1999.90;999.90;;;25.80;72.50;;;;;;5071314;28;20068;-75
2022/09/03 09:33:37;;;;;;;1999.90;999.90;;;26.00;73.10;;;;;;5057295;28;20128;-75
2022/09/03 09:36:10;;;;;;;1999.90;999.90;;;26.30;72.20;;;;;;5055879;28;20048;-75
2022/09/03 09:38:38;;;;;;;1999.90;999.90;;;26.50;70.70;;;;;;5059835;28;20089;-77
2022/09/03 09:41:18;;;;;;;1999.90;999.90;;;26.60;71.20;;;;;;5056321;28;20067;-75
2022/09/03 09:43:48;;;;;;;1999.90;999.90;;;26.60;69.80;;;;;;5056183;28;20047;-75
2022/09/03 09:46:20;;;;;;;1999.90;999.90;;;26.80;68.80;;;;;;5056521;28;20122;-75
2022/09/03 09:48:55;;;;;;;1999.90;999.90;;;26.80;68.30;;;;;;5050890;28;20032;-75
2022/09/03 09:51:22;;;;;;;1999.90;999.90;;;26.60;67.50;;;;;;5054790;28;20051;-75
2022/09/03 09:54:00;;;;;;;1999.90;999.90;;;26.70;68.50;;;;;;5053488;28;20040;-75
2022/09/03 09:56:25;;;;;;;1999.90;999.90;;;26.80;67.20;;;;;;5061314;28;20081;-75
2022/09/03 09:59:08;;;;;;;1999.90;999.90;;;26.90;67.40;;;;;;5069292;28;20524;-75
2022/09/03 10:01:44;;;;;;;1999.90;999.90;;;26.90;64.50;;;;;;5063780;28;20036;-75
2022/09/03 10:04:21;;;;;;;1999.90;999.90;;;26.60;65.10;;;;;;5052013;28;20048;-75
2022/09/03 10:06:55;;;;;;;1999.90;999.90;;;26.40;65.80;;;;;;5047730;28;20119;-74
2022/09/03 10:09:32;;;;;;;1999.90;999.90;;;26.50;63.70;;;;;;5061383;28;20047;-75
2022/09/03 10:12:23;;;;;;;1999.90;999.90;;;26.30;65.10;;;;;;5052062;28;20093;-75
2022/09/03 10:15:16;;;;;;;1999.90;999.90;;;26.30;63.60;;;;;;5075476;28;20048;-75
2022/09/03 10:18:15;;;;;;;1999.90;999.90;;;26.20;63.50;;;;;;5045309;28;20115;-74
2022/09/03 10:20:48;;;;;;;1999.90;999.90;;;26.10;63.90;;;;;;5072705;28;20403;-74
2022/09/03 10:23:27;;;;;;;1999.90;999.90;;;26.20;64.50;;;;;;5059605;28;20044;-74
2022/09/03 10:26:06;;;;;;;1999.90;999.90;;;26.20;64.20;;;;;;5058063;28;20150;-75
2022/09/03 10:28:40;;;;;;;1999.90;999.90;;;26.30;65.50;;;;;;5057751;28;20047;-75
2022/09/03 10:31:30;;;;;;;1999.90;999.90;;;26.50;64.80;;;;;;5057388;28;20086;-74
2022/09/03 10:34:19;;;;;;;1999.90;999.90;;;26.70;63.50;;;;;;5070595;28;20493;-75
2022/09/03 10:37:06;;;;;;;1999.90;999.90;;;26.70;63.00;;;;;;5065780;28;20035;-75
2022/09/03 10:39:57;;;;;;;1999.90;999.90;;;26.60;61.70;;;;;;5070737;28;20047;-75
2022/09/03 10:42:50;;;;;;;1999.90;999.90;;;26.70;63.30;;;;;;5083844;28;20060;-75
2022/09/03 10:45:38;;;;;;;1999.90;999.90;;;26.90;61.70;;;;;;5061286;28;20040;-75
2022/09/03 10:48:32;;;;;;;1999.90;999.90;;;27.00;61.10;;;;;;5052461;28;20051;-75
2022/09/03 10:51:25;;;;;;;1999.90;999.90;;;27.10;60.20;;;;;;5094664;28;20144;-75
2022/09/03 10:54:30;;;;;;;1999.90;999.90;;;27.10;59.40;;;;;;4996257;28;20060;-75
2022/09/03 10:57:13;;;;;;;1999.90;999.90;;;27.10;59.80;;;;;;5061596;28;20044;-75
2022/09/03 10:59:50;;;;;;;1999.90;999.90;;;27.00;57.70;;;;;;5050826;28;20050;-75
2022/09/03 11:02:47;;;;;;;1999.90;999.90;;;27.00;59.50;;;;;;5062982;28;20491;-74
2022/09/03 11:05:30;;;;;;;1999.90;999.90;;;27.10;58.60;;;;;;5073639;28;20078;-75
2022/09/03 11:08:10;;;;;;;1999.90;999.90;;;27.20;57.00;;;;;;5071877;28;20040;-73
2022/09/03 11:10:50;;;;;;;1999.90;999.90;;;27.10;57.60;;;;;;5053339;28;20040;-75
2022/09/03 11:13:38;;;;;;;1999.90;999.90;;;27.20;57.50;;;;;;5072292;28;20486;-74
2022/09/03 11:16:18;;;;;;;1999.90;999.90;;;27.30;57.50;;;;;;5048280;28;20436;-75
2022/09/03 11:19:00;;;;;;;1999.90;999.90;;;27.40;56.90;;;;;;5070995;28;20411;-74
2022/09/03 11:21:28;;;;;;;1999.90;999.90;;;27.50;56.90;;;;;;5050693;28;20059;-75
2022/09/03 11:24:15;;;;;;;1999.90;999.90;;;27.40;55.70;;;;;;5069218;28;20287;-74
2022/09/03 11:26:50;;;;;;;1999.90;999.90;;;27.40;54.90;;;;;;5077893;28;20036;-74
2022/09/03 11:29:25;;;;;;;1999.90;999.90;;;27.50;54.40;;;;;;5064064;28;20479;-75
2022/09/03 11:31:56;;;;;;;1999.90;999.90;;;27.60;55.70;;;;;;5063449;28;20418;-73
2022/09/03 11:34:29;;;;;;;1999.90;999.90;;;27.70;54.80;;;;;;5067218;28;20048;-74
2022/09/03 11:37:16;;;;;;;1999.90;999.90;;;27.70;54.60;;;;;;5069555;28;20562;-74
2022/09/03 11:39:41;;;;;;;1999.90;999.90;;;27.70;54.20;;;;;;5058244;28;20177;-75
2022/09/03 11:42:40;;;;;;;1999.90;999.90;;;27.70;53.40;;;;;;5070327;28;20106;-74
2022/09/03 11:45:33;;;;;;;1999.90;999.90;;;27.60;53.10;;;;;;5067848;28;20044;-75
2022/09/03 11:47:59;;;;;;;1999.90;999.90;;;27.60;53.10;;;;;;5067028;28;20065;-74
2022/09/03 11:50:30;;;;;;;1999.90;999.90;;;27.50;53.00;;;;;;5053991;28;20507;-75
2022/09/03 11:53:09;;;;;;;1999.90;999.90;;;27.60;53.90;;;;;;5073048;28;20044;-74
2022/09/03 11:55:54;;;;;;;1999.90;999.90;;;27.60;53.00;;;;;;5052339;28;20123;-74
2022/09/03 11:58:38;;;;;;;1999.90;999.90;;;27.70;53.50;;;;;;5069609;28;20490;-74
2022/09/03 12:01:09;;;;;;;1999.90;999.90;;;27.80;53.00;;;;;;5052695;28;20050;-74
2022/09/03 12:03:40;;;;;;;1999.90;999.90;;;27.80;52.10;;;;;;5066066;28;20128;-75
2022/09/03 12:06:19;;;;;;;1999.90;999.90;;;27.80;53.40;;;;;;5048832;28;20054;-73
2022/09/03 12:08:50;;;;;;;1999.90;999.90;;;27.70;52.00;;;;;;5067456;28;20044;-74
2022/09/03 12:11:29;;;;;;;1999.90;999.90;;;27.50;53.40;;;;;;5052261;28;20077;-75
2022/09/03 12:14:10;;;;;;;1999.90;999.90;;;27.40;57.00;;;;;;5062706;28;20119;-75
2022/09/03 12:16:53;;;;;;;1999.90;999.90;;;27.20;60.60;;;;;;5066354;28;20077;-75
2022/09/03 12:19:36;;;;;;;1999.90;999.90;;;27.00;53.90;;;;;;5061207;28;20732;-75
2022/09/03 12:22:03;;;;;;;1999.90;999.90;;;26.90;54.00;;;;;;5071818;28;20071;-75
2022/09/03 12:24:36;;;;;;;1999.90;999.90;;;26.80;53.90;;;;;;5073115;28;20044;-75
2022/09/03 12:27:02;;;;;;;1999.90;999.90;;;26.60;61.00;;;;;;5045080;28;20032;-75
2022/09/03 12:29:30;;;;;;;1999.90;999.90;;;26.70;60.40;;;;;;5071483;28;20442;-74
2022/09/03 12:32:07;;;;;;;1999.90;999.90;;;26.90;56.90;;;;;;5048888;28;20481;-74